Terminal Aerodrome Forecast
Issued by NWS

Home | Current Version | Previous Version | Text Only | Print | Product List | Glossary Off
Versions: 1 2 3 4 5 6 7 8 9 10 11 12 13 14 15 16 17 18 19 20 21 22 23 24 25 26 27 28

000
FTUS45 KGGW 040200 AAA
TAFOLF
TAF AMD
KOLF 040232Z 0403/0424 30022G30KT P6SM SCT035 BKN060
      TEMPO 0403/0405 2SM -SHSN BKN030
     FM041200 31009KT P6SM FEW045
     FM041800 30009KT P6SM FEW210=

USA.gov is the U.S. government's official web portal to all federal, state and local government web resources and services.